METAR EDWI 170050Z AUTO 19007KT 9999 FEW014 BKN032 BKN043 01/M01 Q0988=

Die Wetterinformationen haben nur informativen Charakter
und dürfen nicht zum Zwecke der Flugplanung benutzt werden.

Heute ist
Mittwoch, 17.01.2018
Sonnenaufgang
08:31 MEZ
Sonnenuntergang
16:43 MEZ

Platzöffnung
09:00 - 17:00 MEZ

StartseiteFlugplatzinfoFirmen & VereineMotorfluggruppe WHV-FRI

Motorfluggruppe Wilhelmshaven-Friesland e.V.

Die Motorfluggruppe Wilhelmshaven-Friesland e.V. ist als gemeinnütziger Verein und Sportgemeinschaft seit Jahrzehnten mit dem JadeWeserAirport verwurzelt. die Förderung des Luftsports, die Sicherheit und Freude am Fliegen sind Grundziele unserer Gemeinschaft und in unseren Vereinsstatuten festgeschrieben. Rundflüge, Inselflüge oder Streckenflüge - unsere Piloten befinden sich auf dem richtigen Weg!

Unsere vereinseigene Flugschule bietet Pilotenanwärtern die Möglichkeit, die Motorfluglizenz nach den Richtlinien der JAR-FCL zu erwerben. Auch die Ausbildung zur Nachtflug- und CVFR-Berechtigung wird durch unsere ehrenamtlich tätigen Fluglehrer auf den clubeigenen Flugzeugen durchgeführt. Gemeinsame Clubausflüge und Aktivitäten ebenso wie Kameradschaft und Geselligkeit gehören zur Tagesordnung unseres Vereins.

Die Motorfluggruppe Wilhelmshaven-Friesland e.V.

eine starke Gemeinschaft !

Über einen Besuch unserer  Homepage würden wir uns freuen. Dort erfahren Sie mehr über die Vereinsarbeit und unsere Angebote.

Go to top